Time;durP1;ratioP1;P1;durP2;ratioP2;P2;SDS_P1;SDS_P2;PMS_P1;PMS_P2;Temp;Humidity;BMP_temperature;BMP_pressure;BME280_temperature;BME280_humidity;BME280_pressure;Samples;Min_cycle;Max_cycle;Signal;HPM_P1;HPM_P2
2022/05/24 00:01:34;;;;;;;6.15;3.47;;;13.50;99.90;;;;;;5011232;28;20054;-76
2022/05/24 00:03:59;;;;;;;4.50;3.25;;;13.50;99.90;;;;;;4990167;28;20046;-75
2022/05/24 00:06:31;;;;;;;4.75;3.25;;;13.40;99.90;;;;;;5012749;28;20042;-74
2022/05/24 00:08:58;;;;;;;5.90;3.20;;;13.50;99.90;;;;;;4996826;28;20057;-76
2022/05/24 00:11:24;;;;;;;9.50;3.70;;;13.40;99.90;;;;;;5001891;28;20418;-78
2022/05/24 00:13:50;;;;;;;5.50;3.38;;;13.40;99.90;;;;;;4990878;28;20059;-72
2022/05/24 00:16:16;;;;;;;4.95;3.38;;;13.40;99.90;;;;;;4986066;28;20042;-74
2022/05/24 00:18:41;;;;;;;7.00;3.38;;;13.40;99.90;;;;;;4966416;28;20054;-74
2022/05/24 00:21:07;;;;;;;5.40;3.45;;;13.40;99.90;;;;;;4996388;28;20046;-75
2022/05/24 00:23:33;;;;;;;4.70;3.47;;;13.40;99.90;;;;;;5012443;28;20061;-75
2022/05/24 00:26:03;;;;;;;6.03;3.80;;;13.40;99.90;;;;;;4987588;28;20042;-73
2022/05/24 00:28:30;;;;;;;6.78;3.50;;;13.40;99.90;;;;;;4999737;28;20596;-73
2022/05/24 00:30:59;;;;;;;5.18;3.47;;;13.40;99.90;;;;;;4992271;28;20118;-73
2022/05/24 00:33:26;;;;;;;5.50;3.83;;;13.40;99.90;;;;;;5012910;28;20047;-74
2022/05/24 00:35:53;;;;;;;7.20;4.07;;;13.40;99.90;;;;;;4995606;28;20051;-75
2022/05/24 00:38:33;;;;;;;6.50;3.80;;;13.40;99.90;;;;;;5012689;28;20046;-74
2022/05/24 00:41:17;;;;;;;5.72;3.83;;;13.30;99.90;;;;;;4994965;28;20043;-75
2022/05/24 00:44:28;;;;;;;8.93;4.05;;;13.30;99.90;;;;;;4987114;28;20082;-73
2022/05/24 00:46:58;;;;;;;7.93;3.85;;;13.30;99.90;;;;;;4967644;28;20062;-74
2022/05/24 00:49:33;;;;;;;6.05;3.60;;;13.30;99.90;;;;;;5005727;28;20058;-74
2022/05/24 00:52:08;;;;;;;6.32;4.15;;;13.30;99.90;;;;;;5000125;28;20050;-76
2022/05/24 00:54:34;;;;;;;6.75;4.03;;;13.20;99.90;;;;;;4999535;28;20059;-76
2022/05/24 00:57:00;;;;;;;8.05;5.57;;;13.20;99.90;;;;;;4996656;28;20046;-73
2022/05/24 00:59:55;;;;;;;9.13;5.68;;;13.30;99.90;;;;;;5002691;28;20042;-76
2022/05/24 01:02:21;;;;;;;16.85;7.32;;;13.30;99.90;;;;;;5007209;28;20054;-75
2022/05/24 01:04:47;;;;;;;14.02;6.78;;;13.30;99.90;;;;;;5015781;28;20074;-76
2022/05/24 01:07:13;;;;;;;10.75;7.00;;;13.30;99.90;;;;;;4974144;28;20073;-75
2022/05/24 01:10:01;;;;;;;10.07;7.55;;;13.20;99.90;;;;;;5015837;28;20472;-75
2022/05/24 01:12:53;;;;;;;13.05;8.30;;;13.20;99.90;;;;;;4993882;28;20059;-74
2022/05/24 01:15:20;;;;;;;13.38;8.95;;;13.20;99.90;;;;;;4998555;28;20066;-74
2022/05/24 01:17:48;;;;;;;12.75;8.70;;;13.20;99.90;;;;;;4994800;28;20503;-77
2022/05/24 01:20:13;;;;;;;12.57;8.35;;;13.20;99.90;;;;;;4992030;28;20089;-74
2022/05/24 01:23:16;;;;;;;12.43;8.55;;;13.10;99.90;;;;;;4950868;28;20503;-75
2022/05/24 01:26:03;;;;;;;12.52;8.80;;;13.10;99.90;;;;;;4988685;28;20043;-74
2022/05/24 01:28:51;;;;;;;12.48;8.65;;;13.00;99.90;;;;;;5013036;28;20050;-73
2022/05/24 01:31:19;;;;;;;12.52;7.82;;;13.00;99.90;;;;;;4985021;28;20047;-73
2022/05/24 01:36:33;;;;;;;13.98;8.07;;;12.90;99.90;;;;;;5002164;28;20345;-73
2022/05/24 01:39:03;;;;;;;12.95;8.15;;;12.90;99.90;;;;;;4980080;28;20077;-73
2022/05/24 01:41:48;;;;;;;11.80;7.68;;;12.90;99.90;;;;;;4979104;28;20065;-74
2022/05/24 01:44:18;;;;;;;10.82;7.60;;;12.80;99.90;;;;;;4978619;28;20125;-74
2022/05/24 01:46:46;;;;;;;12.40;8.07;;;12.80;99.90;;;;;;4979839;28;20085;-73
2022/05/24 01:49:18;;;;;;;12.38;8.13;;;12.70;99.90;;;;;;5014554;28;20141;-73
2022/05/24 01:51:52;;;;;;;12.02;7.22;;;12.70;99.90;;;;;;5006526;28;20086;-75
2022/05/24 01:54:19;;;;;;;9.57;6.70;;;12.60;99.90;;;;;;4981585;28;20081;-74
2022/05/24 01:56:53;;;;;;;10.07;7.28;;;12.60;99.90;;;;;;5011384;28;20047;-75
2022/05/24 01:59:20;;;;;;;12.80;7.22;;;12.60;99.90;;;;;;5011117;28;20042;-74
2022/05/24 02:01:52;;;;;;;9.68;7.00;;;12.50;99.90;;;;;;5011678;28;20051;-75
2022/05/24 02:04:20;;;;;;;10.73;7.28;;;12.50;99.90;;;;;;5011583;28;20061;-73
2022/05/24 02:07:10;;;;;;;10.95;6.90;;;12.50;99.90;;;;;;4993428;28;20078;-75
2022/05/24 02:09:44;;;;;;;11.65;7.70;;;12.50;99.90;;;;;;5015000;28;20109;-74
2022/05/24 02:12:15;;;;;;;10.10;7.53;;;12.40;99.90;;;;;;5014601;28;20556;-74
2022/05/24 02:14:47;;;;;;;12.68;7.40;;;12.40;99.90;;;;;;4993066;28;20161;-75
2022/05/24 02:17:20;;;;;;;12.07;7.35;;;12.40;99.90;;;;;;4980068;28;20042;-74
2022/05/24 02:19:53;;;;;;;13.25;8.13;;;12.40;99.90;;;;;;4988945;28;20058;-73
2022/05/24 02:22:26;;;;;;;11.77;8.60;;;12.40;99.90;;;;;;4998012;28;20106;-73
2022/05/24 02:25:07;;;;;;;13.27;8.55;;;12.40;99.90;;;;;;5010403;28;20125;-74
2022/05/24 02:27:39;;;;;;;16.95;9.15;;;12.50;99.90;;;;;;4986018;28;20423;-77
2022/05/24 02:30:05;;;;;;;13.63;9.00;;;12.50;99.90;;;;;;4979302;28;20054;-73
2022/05/24 02:32:31;;;;;;;17.38;11.02;;;12.60;99.90;;;;;;5010389;28;20094;-78
2022/05/24 02:34:57;;;;;;;16.50;11.32;;;12.60;99.90;;;;;;4962745;28;20097;-75
2022/05/24 02:37:22;;;;;;;20.77;12.02;;;12.70;99.90;;;;;;5010798;28;20082;-74
2022/05/24 02:42:33;;;;;;;19.30;12.75;;;12.80;99.90;;;;;;4984398;28;20469;-75
2022/05/24 02:44:59;;;;;;;18.05;12.45;;;12.80;99.90;;;;;;4980719;28;20053;-74
2022/05/24 02:47:25;;;;;;;20.75;12.82;;;12.80;99.90;;;;;;4982639;28;20070;-74
2022/05/24 02:49:50;;;;;;;20.48;13.38;;;12.80;99.90;;;;;;5010421;28;20059;-74
2022/05/24 02:52:16;;;;;;;21.42;12.57;;;12.90;99.90;;;;;;4962500;28;20039;-73
2022/05/24 02:54:42;;;;;;;22.60;13.05;;;12.90;99.90;;;;;;4981859;28;20098;-74
2022/05/24 02:57:08;;;;;;;21.45;14.07;;;12.90;99.90;;;;;;4994320;28;20046;-74
2022/05/24 02:59:33;;;;;;;21.40;13.45;;;13.00;99.90;;;;;;4995281;28;20130;-76
2022/05/24 03:02:02;;;;;;;21.75;14.00;;;13.00;99.90;;;;;;5009920;28;20068;-73
2022/05/24 03:04:28;;;;;;;22.42;14.05;;;13.00;99.90;;;;;;5010907;28;20050;-75
2022/05/24 03:09:38;;;;;;;21.48;13.63;;;13.10;99.90;;;;;;4994847;28;20507;-74
2022/05/24 03:14:52;;;;;;;24.60;15.48;;;13.10;99.90;;;;;;4983491;28;20530;-74
2022/05/24 03:17:19;;;;;;;24.90;14.77;;;13.10;99.90;;;;;;5014891;28;20055;-75
2022/05/24 03:19:45;;;;;;;27.05;15.23;;;13.10;99.90;;;;;;4965018;28;20051;-73
2022/05/24 03:22:13;;;;;;;24.33;15.55;;;13.20;99.90;;;;;;5014025;28;20051;-73
2022/05/24 03:24:39;;;;;;;25.08;15.55;;;13.20;99.90;;;;;;4950834;28;20057;-74
2022/05/24 03:27:11;;;;;;;25.80;15.18;;;13.20;99.90;;;;;;4988307;28;20054;-73
2022/05/24 03:29:38;;;;;;;23.67;16.83;;;13.30;99.90;;;;;;5005272;28;20062;-73
2022/05/24 03:32:04;;;;;;;24.00;15.10;;;13.30;99.90;;;;;;5006220;28;20349;-76
2022/05/24 03:34:30;;;;;;;25.30;16.98;;;13.30;99.90;;;;;;5011843;28;20043;-74
2022/05/24 03:36:55;;;;;;;25.15;15.90;;;13.30;99.90;;;;;;4991125;28;20141;-75
2022/05/24 03:39:21;;;;;;;26.50;16.73;;;13.30;99.90;;;;;;4965584;28;20557;-74
2022/05/24 03:41:47;;;;;;;25.75;15.80;;;13.30;99.90;;;;;;5013308;28;20046;-74
2022/05/24 03:44:13;;;;;;;28.48;16.88;;;13.30;99.90;;;;;;4994121;28;20042;-76
2022/05/24 03:46:38;;;;;;;26.45;16.85;;;13.30;99.90;;;;;;4965156;28;20067;-75
2022/05/24 03:49:05;;;;;;;27.17;16.50;;;13.40;99.90;;;;;;4996601;28;20082;-72
2022/05/24 03:51:30;;;;;;;24.48;16.45;;;13.40;99.90;;;;;;5014149;28;20046;-73
2022/05/24 03:53:56;;;;;;;26.00;17.55;;;13.40;99.90;;;;;;4964607;28;20046;-76
2022/05/24 03:56:23;;;;;;;26.10;18.33;;;13.50;99.90;;;;;;5013758;28;20039;-74
2022/05/24 03:58:49;;;;;;;26.10;17.27;;;13.50;99.90;;;;;;5013026;28;20038;-74
2022/05/24 04:01:15;;;;;;;24.98;15.73;;;13.50;99.90;;;;;;5004587;28;20049;-76
2022/05/24 04:03:40;;;;;;;24.25;16.27;;;13.50;99.90;;;;;;4965119;28;20055;-74
2022/05/24 04:06:06;;;;;;;25.20;16.77;;;13.50;99.90;;;;;;5012543;28;20042;-74
2022/05/24 04:08:32;;;;;;;23.88;15.65;;;13.50;99.90;;;;;;4965340;28;20054;-72
2022/05/24 04:11:04;;;;;;;27.70;15.93;;;13.60;99.90;;;;;;4996382;28;20066;-75
2022/05/24 04:13:30;;;;;;;24.63;15.82;;;13.60;99.90;;;;;;4992041;28;20065;-77
2022/05/24 04:15:56;;;;;;;23.95;15.27;;;13.60;99.90;;;;;;5012858;28;20050;-78
2022/05/24 04:18:21;;;;;;;22.80;15.02;;;13.60;99.90;;;;;;4976174;28;20074;-74
2022/05/24 04:20:48;;;;;;;23.38;16.20;;;13.60;99.90;;;;;;5014084;28;20059;-75
2022/05/24 04:23:14;;;;;;;25.35;16.05;;;13.60;99.90;;;;;;4982963;28;20054;-75
2022/05/24 04:25:41;;;;;;;27.02;15.65;;;13.60;99.90;;;;;;4983271;28;20055;-75
2022/05/24 04:28:06;;;;;;;22.95;16.83;;;13.60;99.90;;;;;;4979931;28;20744;-76
2022/05/24 04:30:33;;;;;;;23.58;15.80;;;13.60;99.90;;;;;;5013401;28;20049;-79
2022/05/24 04:32:58;;;;;;;24.13;15.05;;;13.60;99.90;;;;;;4996042;28;20122;-75
2022/05/24 04:35:24;;;;;;;24.65;16.65;;;13.60;99.90;;;;;;5014827;28;20082;-74
2022/05/24 04:37:50;;;;;;;24.45;15.70;;;13.50;99.90;;;;;;5000043;28;20038;-75
2022/05/24 04:40:16;;;;;;;25.77;16.38;;;13.50;99.90;;;;;;4986578;28;20542;-74
2022/05/24 04:42:42;;;;;;;25.38;15.65;;;13.50;99.90;;;;;;5014147;28;20038;-74
2022/05/24 04:45:11;;;;;;;25.63;15.93;;;13.50;99.90;;;;;;4983658;28;20110;-74
2022/05/24 04:47:37;;;;;;;25.27;16.20;;;13.60;99.90;;;;;;5012948;28;20050;-72
2022/05/24 04:50:09;;;;;;;22.92;14.98;;;13.60;99.90;;;;;;4966289;28;20555;-73
2022/05/24 04:52:37;;;;;;;24.42;15.75;;;13.60;99.90;;;;;;4981671;28;20046;-74
2022/05/24 04:55:05;;;;;;;28.15;15.73;;;13.60;99.90;;;;;;5012141;28;20042;-72
2022/05/24 04:57:31;;;;;;;28.20;16.85;;;13.60;99.90;;;;;;4996378;28;20043;-72
2022/05/24 04:59:57;;;;;;;25.95;15.52;;;13.60;99.90;;;;;;4980190;28;20106;-74
2022/05/24 05:02:23;;;;;;;24.08;15.80;;;13.60;99.90;;;;;;4973435;28;20082;-74
2022/05/24 05:04:49;;;;;;;25.60;17.35;;;13.60;99.90;;;;;;4983859;28;20078;-75
2022/05/24 05:07:16;;;;;;;25.88;16.13;;;13.60;99.90;;;;;;5011627;28;20054;-78
2022/05/24 05:09:43;;;;;;;22.63;15.73;;;13.60;99.90;;;;;;4988076;28;20076;-73
2022/05/24 05:12:10;;;;;;;22.70;15.88;;;13.60;99.90;;;;;;4993285;28;20061;-75
2022/05/24 05:14:39;;;;;;;22.95;16.13;;;13.50;99.90;;;;;;4979293;28;20074;-76
2022/05/24 05:17:05;;;;;;;21.45;13.90;;;13.50;99.90;;;;;;5013713;28;20051;-78
2022/05/24 05:19:31;;;;;;;20.02;13.93;;;13.50;99.90;;;;;;4980177;28;20046;-76
2022/05/24 05:21:57;;;;;;;20.50;13.27;;;13.40;99.90;;;;;;4979311;28;20027;-74
2022/05/24 05:24:23;;;;;;;22.52;15.48;;;13.40;99.90;;;;;;4997243;28;20046;-75
2022/05/24 05:26:49;;;;;;;19.42;13.27;;;13.30;99.90;;;;;;5012143;28;20538;-75
2022/05/24 05:29:15;;;;;;;21.65;14.75;;;13.40;99.90;;;;;;4979291;28;20525;-75
2022/05/24 05:31:41;;;;;;;24.42;14.25;;;13.30;99.90;;;;;;5010467;28;20110;-81
2022/05/24 05:34:07;;;;;;;20.17;13.73;;;13.30;99.90;;;;;;4966043;28;20035;-78
2022/05/24 05:36:34;;;;;;;21.40;14.27;;;13.30;99.90;;;;;;4973282;28;20038;-74
2022/05/24 05:39:00;;;;;;;24.17;14.15;;;13.30;99.90;;;;;;4966609;28;20039;-77
2022/05/24 05:41:28;;;;;;;20.05;13.00;;;13.30;99.90;;;;;;4984561;28;20054;-74
2022/05/24 05:43:55;;;;;;;20.35;13.82;;;13.30;99.90;;;;;;4995177;28;20043;-77
2022/05/24 05:46:21;;;;;;;20.63;13.73;;;13.30;99.90;;;;;;4963217;28;20073;-76
2022/05/24 05:48:47;;;;;;;19.10;12.45;;;13.20;99.90;;;;;;4987213;28;20042;-77
2022/05/24 05:51:15;;;;;;;19.45;11.85;;;13.30;99.90;;;;;;4984984;28;20038;-77
2022/05/24 05:53:42;;;;;;;20.20;12.90;;;13.20;99.90;;;;;;4974198;28;20117;-77
2022/05/24 05:56:20;;;;;;;22.02;13.32;;;13.30;99.90;;;;;;4983213;28;20396;-75
2022/05/24 05:58:46;;;;;;;20.27;12.57;;;13.20;99.90;;;;;;5012202;28;20453;-72
2022/05/24 06:01:21;;;;;;;22.52;12.68;;;13.20;99.90;;;;;;4987673;28;20525;-82
2022/05/24 06:03:47;;;;;;;19.50;12.48;;;13.30;99.90;;;;;;5011599;28;20046;-75
2022/05/24 06:06:22;;;;;;;18.08;11.95;;;13.30;99.90;;;;;;5010657;28;20055;-76
2022/05/24 06:08:47;;;;;;;21.10;13.27;;;13.20;99.90;;;;;;5012046;28;20081;-74
2022/05/24 06:11:13;;;;;;;21.20;13.57;;;13.20;99.90;;;;;;5011841;28;20062;-78
2022/05/24 06:13:39;;;;;;;20.10;12.07;;;13.20;99.90;;;;;;4986875;28;20071;-77
2022/05/24 06:16:05;;;;;;;20.98;13.48;;;13.20;99.90;;;;;;4962310;28;20047;-75
2022/05/24 06:18:31;;;;;;;22.75;13.07;;;13.20;99.90;;;;;;4995698;28;20057;-75
2022/05/24 06:20:56;;;;;;;21.08;13.45;;;13.30;99.90;;;;;;4974358;28;20052;-75
2022/05/24 06:23:22;;;;;;;23.48;14.82;;;13.40;99.90;;;;;;4998219;28;20077;-77
2022/05/24 06:25:48;;;;;;;19.55;14.13;;;13.40;99.90;;;;;;4985610;28;20062;-81
2022/05/24 06:28:15;;;;;;;21.10;14.13;;;13.40;99.90;;;;;;5011466;28;20050;-76
2022/05/24 06:30:41;;;;;;;18.17;12.10;;;13.40;99.90;;;;;;4992522;28;20050;-79
2022/05/24 06:33:07;;;;;;;21.90;14.27;;;13.40;99.90;;;;;;5009972;28;20101;-75
2022/05/24 06:35:35;;;;;;;22.67;14.20;;;13.40;99.90;;;;;;4992160;28;20074;-75
2022/05/24 06:38:00;;;;;;;23.23;13.40;;;13.40;99.90;;;;;;4983151;28;20388;-80
2022/05/24 06:40:26;;;;;;;21.02;13.80;;;13.50;99.90;;;;;;5010569;28;20057;-74
2022/05/24 06:42:52;;;;;;;19.25;13.43;;;13.50;99.90;;;;;;5014534;28;20046;-73
2022/05/24 06:45:18;;;;;;;18.38;12.90;;;13.60;99.90;;;;;;5013837;28;20047;-76
2022/05/24 06:47:43;;;;;;;20.73;13.52;;;13.60;99.90;;;;;;4982883;28;20464;-73
2022/05/24 06:50:11;;;;;;;18.30;12.45;;;13.60;99.90;;;;;;5014411;28;20043;-78
2022/05/24 06:52:36;;;;;;;18.52;12.63;;;13.60;99.90;;;;;;4989095;28;20046;-75
2022/05/24 06:55:03;;;;;;;15.57;11.98;;;13.60;99.90;;;;;;5001965;28;20058;-74
2022/05/24 06:57:29;;;;;;;20.75;12.98;;;13.60;99.90;;;;;;4998860;28;20058;-75
2022/05/24 07:02:40;;;;;;;15.30;10.65;;;13.60;99.90;;;;;;5012689;28;20051;-75
2022/05/24 07:05:06;;;;;;;15.90;11.32;;;13.60;99.90;;;;;;4991108;28;20046;-80
2022/05/24 07:07:33;;;;;;;16.92;11.98;;;13.50;99.90;;;;;;5014214;28;20047;-76
2022/05/24 07:10:00;;;;;;;18.90;12.82;;;13.50;99.90;;;;;;4979564;28;20061;-78
2022/05/24 07:12:26;;;;;;;18.67;12.38;;;13.50;99.90;;;;;;4979686;28;20608;-76
2022/05/24 07:14:52;;;;;;;16.67;12.25;;;13.50;99.90;;;;;;4997757;28;20042;-77
2022/05/24 07:17:19;;;;;;;16.52;11.73;;;13.50;99.90;;;;;;5013749;28;20117;-73
2022/05/24 07:19:46;;;;;;;17.50;10.90;;;13.50;99.90;;;;;;4997377;28;20045;-76
2022/05/24 07:22:13;;;;;;;18.38;11.88;;;13.50;99.90;;;;;;5014202;28;20066;-72
2022/05/24 07:24:39;;;;;;;15.98;11.95;;;13.50;99.90;;;;;;4993805;28;20578;-75
2022/05/24 07:27:09;;;;;;;13.40;10.77;;;13.60;99.90;;;;;;5014004;28;20051;-73
2022/05/24 07:29:35;;;;;;;14.70;10.25;;;13.60;99.90;;;;;;4990262;28;20401;-74
2022/05/24 07:32:02;;;;;;;15.05;10.18;;;13.60;99.90;;;;;;4972724;28;20043;-74
2022/05/24 07:34:27;;;;;;;19.55;11.15;;;13.60;99.90;;;;;;4997946;28;20545;-75
2022/05/24 07:36:53;;;;;;;17.45;10.75;;;13.60;99.90;;;;;;5013060;28;20047;-74
2022/05/24 07:39:19;;;;;;;13.85;10.40;;;13.60;99.90;;;;;;4980868;28;20124;-78
2022/05/24 07:47:14;;;;;;;14.48;10.32;;;13.60;99.90;;;;;;5013808;28;20063;-72
2022/05/24 07:49:40;;;;;;;12.50;8.95;;;13.60;99.90;;;;;;4987561;28;20047;-74
2022/05/24 07:52:06;;;;;;;14.13;10.60;;;13.60;99.90;;;;;;4976788;28;20143;-75
2022/05/24 07:54:33;;;;;;;14.70;10.05;;;13.60;99.90;;;;;;5012113;28;20074;-72
2022/05/24 07:56:59;;;;;;;14.93;9.88;;;13.60;99.90;;;;;;5013030;28;20035;-74
2022/05/24 07:59:25;;;;;;;12.90;9.65;;;13.70;99.90;;;;;;4982646;28;20089;-74
2022/05/24 08:01:51;;;;;;;15.02;10.05;;;13.70;99.90;;;;;;4979977;28;20047;-76
2022/05/24 08:04:18;;;;;;;12.80;10.20;;;13.60;99.90;;;;;;4997344;28;20434;-74
2022/05/24 08:06:44;;;;;;;14.57;10.13;;;13.70;99.90;;;;;;4980006;28;20496;-74
2022/05/24 08:09:10;;;;;;;14.40;10.38;;;13.60;99.90;;;;;;4981372;28;20074;-73
2022/05/24 08:11:36;;;;;;;12.55;9.13;;;13.60;99.90;;;;;;4978696;28;20054;-73
2022/05/24 08:14:02;;;;;;;13.32;9.25;;;13.60;99.90;;;;;;4963564;28;20061;-74
2022/05/24 08:16:29;;;;;;;13.65;8.65;;;13.60;99.90;;;;;;4996289;28;20058;-73
2022/05/24 08:18:58;;;;;;;11.55;9.07;;;13.60;99.90;;;;;;4991966;28;20616;-73
2022/05/24 08:21:27;;;;;;;13.20;8.60;;;13.70;99.90;;;;;;4981170;28;20061;-76
2022/05/24 08:23:53;;;;;;;13.55;8.40;;;13.80;99.90;;;;;;4996170;28;20058;-74
2022/05/24 08:26:19;;;;;;;13.15;9.63;;;13.80;99.90;;;;;;4980076;28;20065;-76
2022/05/24 08:28:47;;;;;;;11.90;8.77;;;13.90;99.90;;;;;;4980282;28;20058;-73
2022/05/24 08:31:15;;;;;;;13.40;9.68;;;14.00;99.90;;;;;;4996434;28;20062;-72
2022/05/24 08:33:42;;;;;;;16.00;8.75;;;14.00;99.90;;;;;;4979988;28;20047;-76
2022/05/24 08:36:09;;;;;;;11.52;7.95;;;14.10;99.90;;;;;;4979667;28;20103;-73
2022/05/24 08:38:36;;;;;;;12.13;7.70;;;14.10;99.90;;;;;;4980951;28;20074;-72
2022/05/24 08:41:06;;;;;;;11.20;7.63;;;14.10;99.90;;;;;;4979119;28;20057;-75
2022/05/24 08:48:22;;;;;;;11.32;8.40;;;14.10;99.90;;;;;;4980009;28;20077;-75
2022/05/24 08:49:35;;;;;;;11.32;8.00;;;14.20;99.90;;;;;;4979236;28;20051;-72
2022/05/24 08:52:04;;;;;;;9.50;6.80;;;14.20;99.90;;;;;;4979863;28;20055;-77
2022/05/24 08:54:43;;;;;;;10.00;8.13;;;14.20;99.90;;;;;;4979853;28;20104;-74
2022/05/24 08:57:18;;;;;;;8.38;6.63;;;14.10;99.90;;;;;;4980149;28;20105;-78
2022/05/24 08:59:56;;;;;;;9.40;7.27;;;14.20;99.90;;;;;;4980358;28;20081;-73
2022/05/24 09:02:22;;;;;;;10.68;7.68;;;14.20;99.90;;;;;;4963049;28;20077;-75
2022/05/24 09:04:50;;;;;;;9.32;7.05;;;14.20;99.90;;;;;;4994955;28;20050;-72
2022/05/24 09:07:27;;;;;;;10.75;7.32;;;14.40;99.90;;;;;;4978875;28;20383;-74
2022/05/24 09:10:12;;;;;;;8.75;6.68;;;14.50;99.90;;;;;;4980893;28;20055;-73
2022/05/24 09:13:07;;;;;;;8.38;5.88;;;14.60;99.90;;;;;;4980283;28;20070;-73
2022/05/24 09:15:48;;;;;;;8.68;6.88;;;14.90;99.90;;;;;;4978043;28;20528;-72
2022/05/24 09:18:37;;;;;;;7.60;6.45;;;14.90;99.90;;;;;;4979682;28;20051;-71
2022/05/24 09:21:03;;;;;;;7.95;5.15;;;14.90;99.90;;;;;;4974074;28;20058;-73
2022/05/24 09:23:40;;;;;;;7.28;5.60;;;14.80;99.90;;;;;;5009737;28;20043;-72
2022/05/24 09:26:13;;;;;;;8.07;5.38;;;14.70;99.90;;;;;;4995850;28;20061;-75
2022/05/24 09:28:43;;;;;;;6.63;5.47;;;14.70;99.90;;;;;;4978498;28;20047;-75
2022/05/24 09:31:18;;;;;;;6.50;5.05;;;14.70;99.90;;;;;;4979641;28;20089;-72
2022/05/24 09:33:44;;;;;;;6.82;5.40;;;14.80;99.90;;;;;;4979450;28;20751;-74
2022/05/24 09:36:23;;;;;;;7.82;4.93;;;14.90;99.90;;;;;;4961973;28;20050;-74
2022/05/24 09:38:49;;;;;;;8.88;4.78;;;14.90;99.90;;;;;;4979417;28;20047;-74
2022/05/24 09:41:18;;;;;;;5.68;4.55;;;15.10;99.90;;;;;;4978834;28;20043;-72
2022/05/24 09:44:06;;;;;;;6.57;4.85;;;15.00;99.90;;;;;;4978445;28;20078;-74
2022/05/24 09:46:35;;;;;;;5.57;4.85;;;14.80;99.90;;;;;;4979056;28;20069;-74
2022/05/24 09:49:23;;;;;;;10.50;5.40;;;14.80;99.90;;;;;;4978220;28;20049;-75
2022/05/24 09:51:54;;;;;;;8.50;5.10;;;14.80;99.90;;;;;;4978355;28;20085;-73
2022/05/24 09:54:27;;;;;;;8.40;5.03;;;14.80;99.90;;;;;;4977897;28;20106;-73
2022/05/24 09:57:11;;;;;;;6.82;5.53;;;14.90;99.90;;;;;;4976251;28;20053;-78
2022/05/24 09:59:39;;;;;;;5.65;4.72;;;14.90;99.90;;;;;;4978536;28;20046;-77
2022/05/24 10:02:28;;;;;;;6.20;5.28;;;14.90;99.90;;;;;;4978588;28;20423;-71
2022/05/24 10:04:54;;;;;;;6.05;5.30;;;14.80;99.90;;;;;;4978827;28;20137;-75
2022/05/24 10:07:29;;;;;;;10.13;5.47;;;14.70;99.90;;;;;;4962281;28;20666;-76
2022/05/24 10:10:14;;;;;;;7.78;5.18;;;14.70;99.90;;;;;;4978244;28;20130;-74
2022/05/24 10:12:39;;;;;;;3.20;2.60;;;14.60;99.90;;;;;;4979283;28;20090;-79
2022/05/24 10:15:23;;;;;;;4.70;2.90;;;14.20;99.90;;;;;;4978647;28;20062;-73
2022/05/24 10:18:01;;;;;;;3.90;2.88;;;13.90;99.90;;;;;;4962103;28;20367;-74
2022/05/24 10:21:02;;;;;;;3.38;2.40;;;13.70;99.90;;;;;;4978268;28;20055;-75
2022/05/24 10:23:30;;;;;;;4.75;2.80;;;13.60;99.90;;;;;;4994094;28;20066;-75
2022/05/24 10:26:41;;;;;;;4.63;3.67;;;13.50;99.90;;;;;;4978680;28;20140;-74
2022/05/24 10:29:28;;;;;;;5.65;3.83;;;13.60;99.90;;;;;;4941151;29;20047;-75
2022/05/24 10:31:56;;;;;;;4.63;3.35;;;14.00;99.90;;;;;;4976070;28;20085;-75
2022/05/24 10:40:33;;;;;;;5.47;4.10;;;14.20;99.90;;;;;;4976635;28;20126;-73
2022/05/24 10:43:21;;;;;;;6.45;3.88;;;14.30;99.90;;;;;;4977058;28;20046;-73
2022/05/24 10:45:51;;;;;;;5.40;3.13;;;14.60;99.90;;;;;;4976354;28;20054;-73
2022/05/24 10:48:52;;;;;;;3.08;2.20;;;14.90;99.90;;;;;;4994215;28;20069;-79
2022/05/24 10:51:32;;;;;;;4.47;3.15;;;15.00;99.90;;;;;;4989964;28;20086;-73
2022/05/24 10:54:35;;;;;;;3.70;2.33;;;14.80;99.90;;;;;;4976293;28;20047;-77
2022/05/24 10:57:10;;;;;;;3.78;1.92;;;14.30;99.90;;;;;;4961182;28;20569;-76
2022/05/24 10:59:48;;;;;;;3.15;2.08;;;13.80;99.90;;;;;;4993258;28;20042;-74
2022/05/24 11:02:29;;;;;;;2.55;1.52;;;13.50;99.90;;;;;;4975873;28;20086;-74
2022/05/24 11:05:01;;;;;;;3.53;1.73;;;13.40;99.90;;;;;;4975407;28;20042;-72
2022/05/24 11:07:30;;;;;;;2.58;1.60;;;13.30;99.90;;;;;;4978885;28;20092;-73
2022/05/24 11:10:08;;;;;;;2.85;1.40;;;13.30;99.90;;;;;;4977481;28;20035;-75
2022/05/24 11:12:42;;;;;;;2.65;1.27;;;13.30;99.90;;;;;;4975828;28;20057;-73
2022/05/24 11:15:20;;;;;;;2.13;1.30;;;13.50;99.90;;;;;;4974374;28;20053;-74
2022/05/24 11:17:46;;;;;;;2.92;1.70;;;13.70;99.90;;;;;;4994178;28;20063;-70
2022/05/24 11:20:13;;;;;;;3.83;1.95;;;13.70;99.90;;;;;;4978392;28;20089;-73
2022/05/24 11:23:06;;;;;;;3.92;1.80;;;13.60;99.90;;;;;;4977798;28;20378;-75
2022/05/24 11:25:58;;;;;;;2.70;2.10;;;13.50;99.90;;;;;;4994114;28;20051;-75
2022/05/24 11:28:30;;;;;;;3.25;2.17;;;13.50;99.90;;;;;;5010482;28;20105;-76
2022/05/24 11:31:20;;;;;;;2.67;1.83;;;13.50;99.90;;;;;;4997680;28;20102;-75
2022/05/24 11:33:48;;;;;;;2.80;1.30;;;13.60;99.90;;;;;;4997844;28;20043;-78
2022/05/24 11:36:21;;;;;;;3.25;1.27;;;13.50;99.90;;;;;;4996590;28;20043;-75
2022/05/24 11:38:49;;;;;;;1.75;0.90;;;13.40;99.90;;;;;;4983151;28;20058;-75
2022/05/24 11:41:34;;;;;;;2.72;1.23;;;13.30;99.90;;;;;;4980660;28;20054;-75
2022/05/24 11:44:07;;;;;;;2.30;1.10;;;13.10;99.90;;;;;;4980413;28;20905;-77
2022/05/24 11:46:45;;;;;;;2.53;1.35;;;13.00;99.90;;;;;;4965539;28;20062;-75
2022/05/24 11:49:21;;;;;;;2.20;1.50;;;13.00;99.90;;;;;;4980534;28;20056;-76
2022/05/24 11:52:29;;;;;;;2.75;1.70;;;13.00;99.90;;;;;;4997488;28;20060;-74
2022/05/24 11:54:55;;;;;;;3.17;1.77;;;13.00;99.90;;;;;;4974440;28;20058;-73
2022/05/24 11:57:25;;;;;;;3.47;1.90;;;12.90;99.90;;;;;;4980339;28;20106;-75
2022/05/24 11:59:52;;;;;;;3.17;2.20;;;13.00;99.90;;;;;;4981295;28;20399;-72
2022/05/24 12:02:26;;;;;;;3.78;2.30;;;13.10;99.90;;;;;;4996659;28;20051;-73
2022/05/24 12:07:56;;;;;;;4.00;2.47;;;13.40;99.90;;;;;;4980641;28;20046;-74
2022/05/24 12:10:21;;;;;;;3.58;2.47;;;13.60;99.90;;;;;;4963930;28;20054;-77
2022/05/24 12:12:56;;;;;;;3.65;2.40;;;13.70;99.90;;;;;;4980683;28;20377;-75
2022/05/24 12:15:30;;;;;;;3.42;2.25;;;13.70;99.90;;;;;;4962781;28;20058;-77
2022/05/24 12:17:59;;;;;;;2.85;2.30;;;13.70;99.90;;;;;;4980485;28;20066;-74
2022/05/24 12:20:34;;;;;;;3.83;2.90;;;13.70;99.90;;;;;;4979748;28;20640;-75
2022/05/24 12:23:29;;;;;;;3.83;2.30;;;13.70;99.90;;;;;;4979945;28;20490;-79
2022/05/24 12:26:03;;;;;;;4.30;2.80;;;13.60;99.90;;;;;;4977689;28;20061;-77
2022/05/24 12:28:34;;;;;;;5.65;2.58;;;13.60;99.90;;;;;;4981143;28;20050;-77
2022/05/24 12:31:11;;;;;;;5.95;2.70;;;13.70;99.90;;;;;;4980567;28;20047;-78
2022/05/24 12:33:55;;;;;;;;;;;13.70;99.90;;;;;;4980786;28;20086;-79
2022/05/24 12:36:32;;;;;;;3.85;3.05;;;13.80;99.90;;;;;;5012277;28;19973;-75
2022/05/24 12:39:12;;;;;;;3.33;2.40;;;14.00;99.90;;;;;;4980459;28;20051;-75
2022/05/24 12:41:39;;;;;;;3.72;2.47;;;14.20;99.90;;;;;;4995250;28;20051;-73
2022/05/24 12:44:25;;;;;;;3.15;2.30;;;14.30;99.90;;;;;;4980906;28;20065;-75
2022/05/24 12:47:11;;;;;;;3.25;2.08;;;14.30;99.90;;;;;;4980665;28;20070;-76
2022/05/24 12:49:58;;;;;;;4.23;1.97;;;14.40;99.90;;;;;;4978959;28;20051;-73
2022/05/24 12:52:38;;;;;;;2.55;1.33;;;14.40;99.90;;;;;;4979758;28;20109;-76
2022/05/24 12:55:06;;;;;;;3.85;1.67;;;14.40;99.90;;;;;;4981401;28;20054;-76
2022/05/24 12:57:37;;;;;;;2.80;1.80;;;14.40;99.90;;;;;;4978812;28;20050;-76
2022/05/24 13:00:09;;;;;;;4.05;1.60;;;14.60;99.90;;;;;;4996480;28;20043;-76
2022/05/24 13:02:46;;;;;;;2.63;1.40;;;14.60;99.90;;;;;;4995642;28;20054;-74
2022/05/24 13:05:20;;;;;;;2.00;1.20;;;14.70;99.90;;;;;;4979007;28;20118;-72
2022/05/24 13:07:53;;;;;;;3.35;1.45;;;14.90;99.90;;;;;;4996385;28;20047;-74
2022/05/24 13:10:22;;;;;;;3.05;1.42;;;14.90;99.90;;;;;;4980302;28;20058;-73
2022/05/24 13:13:14;;;;;;;3.25;1.88;;;14.90;99.90;;;;;;4996289;28;20376;-77
2022/05/24 13:15:44;;;;;;;3.00;2.10;;;15.10;99.90;;;;;;4961956;28;20105;-74
2022/05/24 13:18:16;;;;;;;2.40;1.80;;;15.30;99.90;;;;;;4979433;28;20047;-75
2022/05/24 13:20:54;;;;;;;3.63;2.35;;;15.40;99.90;;;;;;4981003;28;20556;-75
2022/05/24 13:23:31;;;;;;;4.32;2.00;;;15.50;99.90;;;;;;4978897;28;20058;-75
2022/05/24 13:26:14;;;;;;;3.03;1.98;;;15.50;99.90;;;;;;4979149;28;20058;-72
2022/05/24 13:28:48;;;;;;;2.83;1.60;;;15.30;99.90;;;;;;4995322;28;20058;-73
2022/05/24 13:34:29;;;;;;;2.05;0.80;;;14.90;99.90;;;;;;4978965;28;20113;-74